Time;durP1;ratioP1;P1;durP2;ratioP2;P2;SDS_P1;SDS_P2;PMS_P1;PMS_P2;Temp;Humidity;BMP_temperature;BMP_pressure;BME280_temperature;BME280_humidity;BME280_pressure;Samples;Min_cycle;Max_cycle;Signal;HPM_P1;HPM_P2
2023/07/29 00:01:49;;;;;;;14.25;9.90;;;;;;;;;;5008858;28;20030;-76
2023/07/29 00:04:15;;;;;;;11.68;8.45;;;;;;;;;;5008860;28;20041;-74
2023/07/29 00:06:42;;;;;;;9.45;7.78;;;;;;;;;;5009242;28;20038;-74
2023/07/29 00:09:08;;;;;;;11.32;8.00;;;;;;;;;;5009395;28;20087;-75
2023/07/29 00:11:34;;;;;;;8.88;5.50;;;;;;;;;;5009035;28;20037;-73
2023/07/29 00:14:01;;;;;;;5.85;3.88;;;;;;;;;;5009377;28;20022;-74
2023/07/29 00:16:27;;;;;;;8.35;5.90;;;;;;;;;;5009709;28;20033;-75
2023/07/29 00:18:53;;;;;;;12.05;8.02;;;;;;;;;;5008778;28;20088;-74
2023/07/29 00:21:19;;;;;;;9.77;5.95;;;;;;;;;;5009117;28;20108;-75
2023/07/29 00:23:46;;;;;;;9.07;6.38;;;;;;;;;;5009069;28;20528;-73
2023/07/29 00:26:11;;;;;;;8.95;5.88;;;;;;;;;;5008945;28;20161;-74
2023/07/29 00:28:38;;;;;;;7.40;4.53;;;;;;;;;;5008972;28;20109;-74
2023/07/29 00:31:04;;;;;;;10.02;4.60;;;;;;;;;;5008722;28;20479;-74
2023/07/29 00:33:29;;;;;;;6.78;3.60;;;;;;;;;;5008505;28;20080;-74
2023/07/29 00:35:57;;;;;;;7.90;4.05;;;;;;;;;;5009199;28;20041;-75
2023/07/29 00:38:22;;;;;;;6.60;4.10;;;;;;;;;;5008994;28;20357;-75
2023/07/29 00:40:49;;;;;;;7.65;4.28;;;;;;;;;;5009453;28;20068;-74
2023/07/29 00:43:15;;;;;;;7.68;3.42;;;;;;;;;;5009823;28;20029;-74
2023/07/29 00:45:42;;;;;;;7.28;4.30;;;;;;;;;;5011479;28;20030;-74
2023/07/29 00:48:08;;;;;;;7.68;3.42;;;;;;;;;;5011402;28;20136;-74
2023/07/29 00:50:34;;;;;;;7.03;2.97;;;;;;;;;;5012753;28;20504;-74
2023/07/29 00:53:01;;;;;;;5.95;3.03;;;;;;;;;;5011775;28;20026;-74
2023/07/29 00:55:28;;;;;;;6.75;3.30;;;;;;;;;;5011916;28;20074;-73
2023/07/29 00:57:54;;;;;;;7.32;2.55;;;;;;;;;;5012484;28;20051;-73
2023/07/29 01:00:21;;;;;;;6.15;2.22;;;;;;;;;;5012480;28;20030;-74
2023/07/29 01:02:47;;;;;;;5.10;2.60;;;;;;;;;;5012351;28;20025;-74
2023/07/29 01:05:15;;;;;;;4.18;2.40;;;;;;;;;;4994361;28;20030;-73
2023/07/29 01:08:00;;;;;;;7.70;3.20;;;;;;;;;;5012132;28;20025;-73
2023/07/29 01:11:02;;;;;;;5.35;2.75;;;;;;;;;;4994461;28;20030;-72
2023/07/29 01:13:47;;;;;;;5.10;2.85;;;;;;;;;;4916356;29;20439;-73
2023/07/29 01:16:17;;;;;;;6.22;2.63;;;;;;;;;;5006192;28;20129;-73
2023/07/29 01:18:46;;;;;;;5.57;2.40;;;;;;;;;;5011993;28;20104;-74
2023/07/29 01:21:13;;;;;;;3.50;1.92;;;;;;;;;;5011617;28;20121;-74
2023/07/29 01:23:39;;;;;;;5.38;2.60;;;;;;;;;;5011967;28;20030;-73
2023/07/29 01:26:05;;;;;;;6.72;3.47;;;;;;;;;;5011435;28;20030;-74
2023/07/29 01:28:31;;;;;;;6.45;3.50;;;;;;;;;;5011909;28;20128;-73
2023/07/29 01:31:20;;;;;;;6.10;3.15;;;;;;;;;;5011321;28;20033;-74
2023/07/29 01:33:49;;;;;;;7.68;3.05;;;;;;;;;;5003565;28;20112;-74
2023/07/29 01:36:23;;;;;;;7.13;3.72;;;;;;;;;;4976697;28;20400;-74
2023/07/29 01:38:50;;;;;;;11.77;5.30;;;;;;;;;;5011261;28;20058;-73
2023/07/29 01:41:17;;;;;;;7.90;4.35;;;;;;;;;;5010987;28;20026;-73
2023/07/29 01:43:43;;;;;;;7.47;4.70;;;;;;;;;;5011349;28;20022;-73
2023/07/29 01:46:13;;;;;;;8.70;4.45;;;;;;;;;;5011337;28;20036;-74
2023/07/29 01:48:39;;;;;;;6.55;4.15;;;;;;;;;;5010783;28;20030;-74
2023/07/29 01:51:06;;;;;;;7.45;4.70;;;;;;;;;;5011030;28;20032;-72
2023/07/29 01:53:32;;;;;;;8.68;4.47;;;;;;;;;;5010419;28;20030;-74
2023/07/29 01:55:58;;;;;;;9.82;6.40;;;;;;;;;;5010329;28;20158;-74
2023/07/29 01:58:24;;;;;;;10.27;6.18;;;;;;;;;;5010832;28;20048;-74
2023/07/29 02:00:50;;;;;;;9.43;5.50;;;;;;;;;;5011280;28;20026;-73
2023/07/29 02:03:16;;;;;;;11.25;6.07;;;;;;;;;;5011138;28;20099;-73
2023/07/29 02:05:43;;;;;;;10.35;6.38;;;;;;;;;;5011208;28;20021;-74
2023/07/29 02:08:09;;;;;;;11.27;7.93;;;;;;;;;;5010553;28;20476;-74
2023/07/29 02:10:35;;;;;;;10.10;6.65;;;;;;;;;;5010099;28;20106;-73
2023/07/29 02:13:01;;;;;;;14.07;8.30;;;;;;;;;;5010792;28;20060;-74
2023/07/29 02:15:28;;;;;;;10.45;7.47;;;;;;;;;;5010819;28;20026;-73
2023/07/29 02:17:54;;;;;;;10.27;7.03;;;;;;;;;;5010813;28;20034;-73
2023/07/29 02:20:20;;;;;;;14.75;9.63;;;;;;;;;;4992778;28;20030;-73
2023/07/29 02:22:47;;;;;;;16.42;10.38;;;;;;;;;;5010500;28;20022;-73
2023/07/29 02:25:13;;;;;;;15.70;9.95;;;;;;;;;;5010474;28;20029;-74
2023/07/29 02:27:39;;;;;;;13.68;9.85;;;;;;;;;;5010673;28;20030;-74
2023/07/29 02:30:05;;;;;;;14.50;11.35;;;;;;;;;;5010827;28;20033;-73
2023/07/29 02:32:31;;;;;;;15.18;11.10;;;;;;;;;;4992696;28;20034;-74
2023/07/29 02:34:57;;;;;;;15.52;12.23;;;;;;;;;;5011376;28;20058;-72
2023/07/29 02:37:23;;;;;;;17.30;11.45;;;;;;;;;;5011081;28;20135;-73
2023/07/29 02:39:49;;;;;;;15.32;11.25;;;;;;;;;;5010720;28;20088;-74
2023/07/29 02:42:15;;;;;;;15.88;12.00;;;;;;;;;;5010304;28;20543;-74
2023/07/29 02:44:41;;;;;;;12.73;10.80;;;;;;;;;;5011160;28;20388;-73
2023/07/29 02:47:10;;;;;;;16.52;11.85;;;;;;;;;;5010947;28;20026;-73
2023/07/29 02:49:36;;;;;;;22.48;11.35;;;;;;;;;;5010740;28;20037;-74
2023/07/29 02:52:02;;;;;;;17.02;11.70;;;;;;;;;;5011396;28;20026;-73
2023/07/29 02:54:28;;;;;;;15.07;10.90;;;;;;;;;;5011014;28;20036;-74
2023/07/29 02:56:54;;;;;;;15.45;10.65;;;;;;;;;;5010785;28;20084;-74
2023/07/29 02:59:20;;;;;;;15.15;11.10;;;;;;;;;;5011601;28;20054;-74
2023/07/29 03:01:46;;;;;;;17.08;13.27;;;;;;;;;;4993412;28;20026;-74
2023/07/29 03:04:15;;;;;;;15.52;11.98;;;;;;;;;;5011321;28;20908;-75
2023/07/29 03:06:41;;;;;;;17.27;12.65;;;;;;;;;;5010376;28;20034;-74
2023/07/29 03:09:07;;;;;;;18.75;11.50;;;;;;;;;;5010478;28;20030;-75
2023/07/29 03:11:33;;;;;;;15.70;11.30;;;;;;;;;;5010002;28;20458;-72
2023/07/29 03:14:00;;;;;;;15.35;11.35;;;;;;;;;;4993040;28;20026;-72
2023/07/29 03:16:26;;;;;;;16.05;11.80;;;;;;;;;;5010144;28;20073;-72
2023/07/29 03:18:52;;;;;;;16.77;11.10;;;;;;;;;;5010202;28;20042;-73
2023/07/29 03:21:18;;;;;;;20.27;13.98;;;;;;;;;;5010772;28;20538;-74
2023/07/29 03:23:44;;;;;;;16.08;12.32;;;;;;;;;;5010963;28;20109;-72
2023/07/29 03:26:10;;;;;;;15.65;12.30;;;;;;;;;;5010288;28;20061;-72
2023/07/29 03:28:40;;;;;;;18.13;12.15;;;;;;;;;;5009864;28;20030;-72
2023/07/29 03:31:07;;;;;;;13.68;10.05;;;;;;;;;;5010192;28;20040;-73
2023/07/29 03:33:33;;;;;;;16.30;9.82;;;;;;;;;;5009860;28;20037;-74
2023/07/29 03:35:59;;;;;;;14.35;10.82;;;;;;;;;;5010186;28;20108;-75
2023/07/29 03:38:25;;;;;;;14.15;10.20;;;;;;;;;;5010386;28;20089;-74
2023/07/29 03:40:51;;;;;;;16.35;11.60;;;;;;;;;;5009960;28;20571;-73
2023/07/29 03:43:17;;;;;;;14.15;10.52;;;;;;;;;;5009645;28;20022;-72
2023/07/29 03:45:43;;;;;;;13.23;9.75;;;;;;;;;;5009313;28;20025;-72
2023/07/29 03:48:09;;;;;;;18.20;9.20;;;;;;;;;;5009778;28;20026;-73
2023/07/29 03:50:36;;;;;;;10.30;6.57;;;;;;;;;;5010166;28;20084;-72
2023/07/29 03:53:02;;;;;;;10.75;8.65;;;;;;;;;;5009874;28;20581;-72
2023/07/29 03:55:31;;;;;;;12.50;9.52;;;;;;;;;;4991646;28;20139;-72
2023/07/29 03:58:00;;;;;;;13.10;9.40;;;;;;;;;;5009843;28;20439;-73
2023/07/29 04:00:27;;;;;;;14.30;8.25;;;;;;;;;;5010126;28;20073;-73
2023/07/29 04:02:53;;;;;;;11.38;7.82;;;;;;;;;;5008863;28;20029;-73
2023/07/29 04:05:19;;;;;;;13.02;8.35;;;;;;;;;;5009170;28;20108;-73
2023/07/29 04:07:45;;;;;;;10.55;6.63;;;;;;;;;;5008803;28;20101;-73
2023/07/29 04:10:11;;;;;;;10.88;7.20;;;;;;;;;;5008752;28;20034;-72
2023/07/29 04:12:37;;;;;;;9.98;6.88;;;;;;;;;;5009084;28;20442;-73
2023/07/29 04:15:03;;;;;;;10.88;6.57;;;;;;;;;;5009071;28;20026;-73
2023/07/29 04:17:29;;;;;;;10.23;6.38;;;;;;;;;;5009157;28;20095;-72
2023/07/29 04:19:55;;;;;;;8.68;6.35;;;;;;;;;;4995344;28;20132;-73
2023/07/29 04:22:21;;;;;;;10.77;5.88;;;;;;;;;;5012911;28;20038;-74
2023/07/29 04:24:47;;;;;;;13.15;5.32;;;;;;;;;;5012315;28;20049;-74
2023/07/29 04:27:13;;;;;;;9.45;5.20;;;;;;;;;;5012894;28;20468;-74
2023/07/29 04:29:39;;;;;;;7.90;4.80;;;;;;;;;;5012940;28;20022;-72
2023/07/29 04:32:06;;;;;;;9.93;5.00;;;;;;;;;;5012894;28;20037;-74
2023/07/29 04:34:32;;;;;;;8.18;4.53;;;;;;;;;;5012261;28;20065;-73
2023/07/29 04:36:58;;;;;;;7.18;4.60;;;;;;;;;;5011970;28;20998;-73
2023/07/29 04:39:24;;;;;;;8.98;4.65;;;;;;;;;;4994940;28;20021;-73
2023/07/29 04:41:51;;;;;;;8.68;4.93;;;;;;;;;;5012896;28;20034;-73
2023/07/29 04:44:17;;;;;;;10.35;4.35;;;;;;;;;;5012451;28;20157;-73
2023/07/29 04:46:43;;;;;;;8.10;4.68;;;;;;;;;;5012045;28;20072;-74
2023/07/29 04:49:09;;;;;;;8.55;3.85;;;;;;;;;;5012193;28;20476;-74
2023/07/29 04:51:37;;;;;;;7.78;4.78;;;;;;;;;;5012145;28;20030;-74
2023/07/29 04:54:03;;;;;;;9.00;4.47;;;;;;;;;;5011754;28;20088;-73
2023/07/29 04:56:28;;;;;;;7.07;4.40;;;;;;;;;;5011999;28;20699;-74
2023/07/29 04:58:55;;;;;;;8.50;5.40;;;;;;;;;;5011793;28;20105;-72
2023/07/29 05:01:21;;;;;;;7.03;4.90;;;;;;;;;;5012368;28;20180;-74
2023/07/29 05:03:47;;;;;;;9.23;4.55;;;;;;;;;;5012139;28;20048;-74
2023/07/29 05:06:13;;;;;;;7.55;4.00;;;;;;;;;;5011980;28;20038;-73
2023/07/29 05:08:39;;;;;;;8.43;4.28;;;;;;;;;;5012312;28;20026;-75
2023/07/29 05:11:05;;;;;;;6.95;3.20;;;;;;;;;;5013774;28;20105;-72
2023/07/29 05:13:31;;;;;;;5.70;3.15;;;;;;;;;;5012402;28;20030;-74
2023/07/29 05:15:57;;;;;;;7.68;4.00;;;;;;;;;;5012022;28;20033;-74
2023/07/29 05:18:23;;;;;;;7.22;3.58;;;;;;;;;;4994521;28;20041;-74
2023/07/29 05:20:49;;;;;;;8.85;4.30;;;;;;;;;;5013546;28;20034;-73
2023/07/29 05:23:15;;;;;;;4.55;2.72;;;;;;;;;;5011708;28;20491;-73
2023/07/29 05:25:41;;;;;;;5.88;2.63;;;;;;;;;;5011878;28;20041;-74
2023/07/29 05:28:07;;;;;;;6.45;3.35;;;;;;;;;;5011146;28;20025;-74
2023/07/29 05:30:37;;;;;;;5.03;3.10;;;;;;;;;;5011098;28;20030;-74
2023/07/29 05:33:13;;;;;;;6.78;2.80;;;;;;;;;;5011724;28;20526;-75
2023/07/29 05:35:39;;;;;;;8.25;3.50;;;;;;;;;;5011302;28;20554;-73
2023/07/29 05:38:06;;;;;;;6.10;3.15;;;;;;;;;;5012340;28;20036;-73
2023/07/29 05:40:32;;;;;;;7.22;4.03;;;;;;;;;;5011916;28;20120;-73
2023/07/29 05:42:58;;;;;;;5.90;2.90;;;;;;;;;;5011863;28;20462;-74
2023/07/29 05:45:24;;;;;;;8.38;3.08;;;;;;;;;;5012486;28;20030;-75
2023/07/29 05:47:50;;;;;;;8.32;4.28;;;;;;;;;;4994551;28;20021;-74
2023/07/29 05:50:16;;;;;;;6.65;4.68;;;;;;;;;;5010672;28;20034;-74
2023/07/29 05:52:42;;;;;;;6.80;3.53;;;;;;;;;;5009208;28;20481;-73
2023/07/29 05:55:08;;;;;;;6.82;3.97;;;;;;;;;;4992404;28;20030;-74
2023/07/29 05:57:34;;;;;;;8.63;4.28;;;;;;;;;;4992135;28;20054;-75
2023/07/29 06:00:00;;;;;;;8.35;3.25;;;;;;;;;;4992342;28;20080;-72
2023/07/29 06:02:26;;;;;;;12.02;3.28;;;;;;;;;;4992237;28;20038;-71
2023/07/29 06:04:52;;;;;;;4.22;1.73;;;;;;;;;;4992105;28;20027;-71
2023/07/29 06:07:18;;;;;;;7.40;2.10;;;;;;;;;;4974988;28;20369;-71
2023/07/29 06:09:44;;;;;;;7.85;2.85;;;;;;;;;;4991799;28;20030;-73
2023/07/29 06:12:10;;;;;;;5.85;2.20;;;;;;;;;;4992651;28;20487;-72
2023/07/29 06:14:36;;;;;;;7.65;3.25;;;;;;;;;;4992396;28;20096;-73
2023/07/29 06:17:03;;;;;;;7.97;4.93;;;;;;;;;;4992502;28;20062;-72
2023/07/29 06:19:29;;;;;;;8.57;4.78;;;;;;;;;;4991088;28;20027;-72
2023/07/29 06:21:56;;;;;;;9.80;4.10;;;;;;;;;;4990448;28;20026;-71
2023/07/29 06:24:22;;;;;;;7.80;3.97;;;;;;;;;;4990886;28;20117;-73
2023/07/29 06:26:48;;;;;;;8.27;4.50;;;;;;;;;;4991395;28;20954;-72
2023/07/29 06:29:14;;;;;;;5.88;2.80;;;;;;;;;;4991236;28;20027;-72
2023/07/29 06:31:40;;;;;;;7.40;4.20;;;;;;;;;;4991092;28;20136;-72
2023/07/29 06:34:06;;;;;;;6.47;3.85;;;;;;;;;;4990776;28;20839;-72
2023/07/29 06:36:32;;;;;;;7.95;4.75;;;;;;;;;;4972470;28;20133;-72
2023/07/29 06:38:58;;;;;;;6.82;3.45;;;;;;;;;;4991270;28;20034;-71
2023/07/29 06:41:27;;;;;;;9.20;4.97;;;;;;;;;;4990202;28;20026;-72
2023/07/29 06:43:53;;;;;;;10.95;6.35;;;;;;;;;;4990873;28;20046;-73
2023/07/29 06:46:19;;;;;;;7.88;4.40;;;;;;;;;;4991023;28;20398;-74
2023/07/29 06:48:45;;;;;;;7.88;5.13;;;;;;;;;;4990759;28;20054;-73
2023/07/29 06:51:11;;;;;;;9.82;3.70;;;;;;;;;;4991048;28;20125;-72
2023/07/29 06:53:37;;;;;;;9.13;3.65;;;;;;;;;;4990816;28;20026;-72
2023/07/29 06:56:03;;;;;;;7.72;3.75;;;;;;;;;;4990270;28;20061;-72
2023/07/29 06:58:29;;;;;;;8.27;4.97;;;;;;;;;;4990602;28;20105;-72
2023/07/29 07:00:55;;;;;;;9.93;5.70;;;;;;;;;;4990436;28;20105;-73
2023/07/29 07:03:21;;;;;;;8.50;4.68;;;;;;;;;;4990593;28;20038;-73
2023/07/29 07:05:47;;;;;;;5.90;2.75;;;;;;;;;;4990696;28;20484;-72
2023/07/29 07:08:13;;;;;;;9.60;4.53;;;;;;;;;;4990940;28;20114;-73
2023/07/29 07:10:39;;;;;;;10.32;5.32;;;;;;;;;;4990348;28;20077;-73
2023/07/29 07:13:05;;;;;;;9.40;5.85;;;;;;;;;;4991444;28;20026;-72
2023/07/29 07:15:31;;;;;;;8.18;4.07;;;;;;;;;;4990589;28;20096;-73
2023/07/29 07:17:57;;;;;;;6.60;3.58;;;;;;;;;;4990750;28;20026;-73
2023/07/29 07:20:23;;;;;;;8.18;4.25;;;;;;;;;;4989851;28;20034;-71
2023/07/29 07:22:49;;;;;;;11.10;6.10;;;;;;;;;;4990742;28;20030;-72
2023/07/29 07:25:15;;;;;;;4.03;2.17;;;;;;;;;;4989835;28;20480;-72
2023/07/29 07:27:41;;;;;;;7.85;3.75;;;;;;;;;;4990925;28;20155;-74
2023/07/29 07:30:08;;;;;;;4.97;3.03;;;;;;;;;;4989461;28;20031;-71
2023/07/29 07:32:36;;;;;;;7.28;3.85;;;;;;;;;;4988908;28;20546;-72
2023/07/29 07:35:02;;;;;;;9.18;4.38;;;;;;;;;;4988675;28;20106;-73
2023/07/29 07:37:29;;;;;;;7.50;4.82;;;;;;;;;;4989420;28;20026;-73
2023/07/29 07:39:55;;;;;;;8.95;5.15;;;;;;;;;;4988852;28;20077;-72
2023/07/29 07:42:21;;;;;;;6.72;2.30;;;;;;;;;;4988178;28;20118;-72
2023/07/29 07:44:48;;;;;;;7.10;4.65;;;;;;;;;;4989611;28;20101;-72
2023/07/29 07:47:14;;;;;;;6.85;3.58;;;;;;;;;;4989976;28;20388;-72
2023/07/29 07:49:40;;;;;;;9.75;5.10;;;;;;;;;;4989812;28;20034;-73
2023/07/29 07:52:06;;;;;;;8.50;6.28;;;;;;;;;;4990231;28;20026;-73
2023/07/29 07:54:32;;;;;;;9.10;5.30;;;;;;;;;;4989775;28;20022;-73
2023/07/29 07:56:58;;;;;;;5.40;3.35;;;;;;;;;;4989061;28;20784;-73
2023/07/29 07:59:24;;;;;;;10.82;4.10;;;;;;;;;;4989999;28;20037;-74
2023/07/29 08:01:52;;;;;;;9.05;5.07;;;;;;;;;;4989953;28;20034;-72
2023/07/29 08:04:18;;;;;;;10.55;6.53;;;;;;;;;;4989353;28;20085;-72
2023/07/29 08:06:44;;;;;;;11.30;6.13;;;;;;;;;;4973076;28;20026;-73
2023/07/29 08:09:10;;;;;;;7.63;5.95;;;;;;;;;;4990206;28;20081;-73
2023/07/29 08:11:36;;;;;;;10.07;6.43;;;;;;;;;;4990236;28;20030;-71
2023/07/29 08:14:02;;;;;;;7.72;4.80;;;;;;;;;;4989953;28;20030;-72
2023/07/29 08:16:28;;;;;;;8.15;5.80;;;;;;;;;;4990120;28;20031;-74
2023/07/29 08:18:54;;;;;;;6.68;5.32;;;;;;;;;;4990235;28;20530;-72
2023/07/29 08:21:20;;;;;;;6.78;3.70;;;;;;;;;;4990030;28;20081;-73
2023/07/29 08:23:46;;;;;;;10.48;5.45;;;;;;;;;;4990080;28;20022;-72
2023/07/29 08:26:12;;;;;;;7.43;5.43;;;;;;;;;;4989744;28;20105;-71
2023/07/29 08:28:39;;;;;;;8.38;4.50;;;;;;;;;;4990042;28;20033;-72
2023/07/29 08:31:05;;;;;;;6.45;3.25;;;;;;;;;;4989568;28;20027;-74
2023/07/29 08:33:33;;;;;;;7.90;4.53;;;;;;;;;;4989711;28;20165;-73
2023/07/29 08:35:59;;;;;;;5.55;2.72;;;;;;;;;;4989558;28;20038;-73
2023/07/29 08:38:25;;;;;;;6.18;3.75;;;;;;;;;;4989655;28;20242;-73
2023/07/29 08:40:51;;;;;;;4.95;3.33;;;;;;;;;;4990308;28;20030;-71
2023/07/29 08:43:20;;;;;;;6.97;4.18;;;;;;;;;;4990013;28;20062;-73
2023/07/29 08:45:46;;;;;;;4.65;3.08;;;;;;;;;;4989131;28;20042;-72
2023/07/29 08:48:13;;;;;;;6.95;4.07;;;;;;;;;;4989234;28;20088;-72
2023/07/29 08:50:41;;;;;;;6.43;4.60;;;;;;;;;;4989383;28;20805;-74
2023/07/29 08:53:08;;;;;;;6.45;3.80;;;;;;;;;;4988722;28;20109;-72
2023/07/29 08:55:37;;;;;;;5.65;3.05;;;;;;;;;;4989533;28;20575;-76
2023/07/29 08:58:04;;;;;;;5.40;3.17;;;;;;;;;;4989300;28;20041;-72
2023/07/29 09:00:31;;;;;;;6.15;2.65;;;;;;;;;;4989384;28;20026;-72
2023/07/29 09:03:02;;;;;;;6.60;3.22;;;;;;;;;;4989284;28;20510;-73
2023/07/29 09:05:28;;;;;;;6.78;3.17;;;;;;;;;;4992641;28;20084;-72
2023/07/29 09:07:55;;;;;;;4.60;2.53;;;;;;;;;;4993333;28;20026;-71
2023/07/29 09:10:23;;;;;;;7.15;3.55;;;;;;;;;;4992761;28;20019;-75
2023/07/29 09:12:49;;;;;;;5.28;3.28;;;;;;;;;;4976000;28;20034;-73
2023/07/29 09:15:26;;;;;;;2.97;1.80;;;;;;;;;;4993607;28;20023;-73
2023/07/29 09:17:53;;;;;;;6.28;2.65;;;;;;;;;;4993189;28;20026;-74
2023/07/29 09:20:24;;;;;;;4.40;2.40;;;;;;;;;;4975756;28;20737;-72
2023/07/29 09:22:50;;;;;;;5.25;2.33;;;;;;;;;;4975507;28;20031;-72
2023/07/29 09:25:17;;;;;;;4.55;2.70;;;;;;;;;;4993373;28;20396;-73
2023/07/29 09:27:43;;;;;;;5.15;2.83;;;;;;;;;;4992394;28;20034;-73
2023/07/29 09:30:16;;;;;;;5.25;2.20;;;;;;;;;;4992619;28;20033;-73
2023/07/29 09:32:42;;;;;;;4.78;2.30;;;;;;;;;;4992597;28;20100;-71
2023/07/29 09:35:14;;;;;;;4.60;1.80;;;;;;;;;;4975378;28;20506;-71
2023/07/29 09:37:41;;;;;;;3.28;1.80;;;;;;;;;;4992122;28;20062;-72
2023/07/29 09:40:07;;;;;;;4.35;2.05;;;;;;;;;;4992201;28;20027;-71
2023/07/29 09:42:33;;;;;;;3.90;2.08;;;;;;;;;;4992239;28;20117;-72
2023/07/29 09:44:59;;;;;;;4.57;1.98;;;;;;;;;;4992035;28;20038;-72
2023/07/29 09:47:26;;;;;;;3.00;1.63;;;;;;;;;;4992527;28;20030;-72
2023/07/29 09:49:53;;;;;;;7.43;2.13;;;;;;;;;;4992518;28;20492;-72
2023/07/29 09:52:22;;;;;;;2.92;1.40;;;;;;;;;;4992339;28;20060;-72
2023/07/29 09:54:48;;;;;;;5.10;2.15;;;;;;;;;;4994650;28;20089;-73
2023/07/29 09:57:15;;;;;;;3.55;1.52;;;;;;;;;;4992315;28;20082;-71
2023/07/29 09:59:41;;;;;;;3.55;1.70;;;;;;;;;;4991981;28;20030;-72
2023/07/29 10:02:16;;;;;;;4.65;1.10;;;;;;;;;;4991467;28;20030;-71
2023/07/29 10:04:43;;;;;;;2.83;1.17;;;;;;;;;;4992087;28;20049;-72
2023/07/29 10:07:10;;;;;;;4.10;1.42;;;;;;;;;;4992392;28;20492;-70
2023/07/29 10:09:37;;;;;;;3.55;1.65;;;;;;;;;;4974209;28;20029;-70
2023/07/29 10:12:03;;;;;;;2.75;1.40;;;;;;;;;;4991646;28;20018;-70
2023/07/29 10:14:31;;;;;;;3.25;1.25;;;;;;;;;;4991496;28;20101;-72
2023/07/29 10:16:57;;;;;;;3.70;1.52;;;;;;;;;;4990353;28;20065;-71
2023/07/29 10:19:26;;;;;;;3.50;1.30;;;;;;;;;;4991842;28;20065;-71
2023/07/29 10:21:52;;;;;;;2.47;1.30;;;;;;;;;;4992490;28;20448;-71
2023/07/29 10:24:28;;;;;;;3.58;1.40;;;;;;;;;;4992325;28;20034;-72
2023/07/29 10:26:57;;;;;;;2.97;1.40;;;;;;;;;;4990672;28;20026;-71
2023/07/29 10:29:24;;;;;;;2.83;1.20;;;;;;;;;;4990997;28;20469;-70
2023/07/29 10:31:53;;;;;;;2.40;1.02;;;;;;;;;;4990711;28;20026;-70
2023/07/29 10:34:19;;;;;;;3.03;1.10;;;;;;;;;;4991196;28;20449;-70
2023/07/29 10:36:46;;;;;;;2.00;1.00;;;;;;;;;;4990900;28;20339;-71
2023/07/29 10:39:12;;;;;;;3.20;1.13;;;;;;;;;;4991674;28;20488;-71
2023/07/29 10:41:58;;;;;;;4.18;1.20;;;;;;;;;;4991544;28;20031;-71
2023/07/29 10:44:42;;;;;;;2.53;1.00;;;;;;;;;;4991643;28;20104;-70
2023/07/29 10:47:15;;;;;;;3.20;0.98;;;;;;;;;;4991091;28;20109;-70
2023/07/29 10:49:41;;;;;;;3.17;1.38;;;;;;;;;;4990870;28;20101;-70
2023/07/29 10:52:07;;;;;;;4.50;1.65;;;;;;;;;;4990523;28;20110;-70
2023/07/29 10:54:46;;;;;;;3.88;2.20;;;;;;;;;;4990996;28;20361;-71
2023/07/29 10:57:36;;;;;;;4.00;1.65;;;;;;;;;;4990667;28;20097;-70
2023/07/29 11:00:03;;;;;;;2.83;1.47;;;;;;;;;;4983006;28;20042;-71
2023/07/29 11:02:33;;;;;;;4.07;1.95;;;;;;;;;;4990752;28;20191;-72
2023/07/29 11:04:59;;;;;;;;;;;;;;;;;;4991213;28;20029;-71
2023/07/29 11:07:28;;;;;;;2.63;1.10;;;;;;;;;;4990174;28;20008;-71
2023/07/29 11:09:56;;;;;;;3.05;1.38;;;;;;;;;;4990555;28;20113;-72
2023/07/29 11:12:36;;;;;;;3.97;1.70;;;;;;;;;;4990808;28;20022;-70
2023/07/29 11:15:08;;;;;;;2.30;1.40;;;;;;;;;;4990295;28;20113;-71
2023/07/29 11:17:41;;;;;;;2.88;1.30;;;;;;;;;;4972785;28;20057;-71
2023/07/29 11:20:08;;;;;;;2.20;1.30;;;;;;;;;;4990189;28;20389;-71
2023/07/29 11:22:34;;;;;;;3.85;1.52;;;;;;;;;;4990452;28;20053;-71
2023/07/29 11:25:00;;;;;;;3.30;1.63;;;;;;;;;;4990726;28;20070;-72
2023/07/29 11:27:26;;;;;;;3.03;1.23;;;;;;;;;;4989820;28;20503;-70
2023/07/29 11:30:05;;;;;;;5.45;1.65;;;;;;;;;;4991100;28;20106;-69
2023/07/29 11:32:32;;;;;;;6.93;2.20;;;;;;;;;;4990546;28;20035;-71
2023/07/29 11:34:58;;;;;;;3.58;1.70;;;;;;;;;;4989815;28;20038;-69
2023/07/29 11:37:24;;;;;;;4.35;2.10;;;;;;;;;;4990587;28;20137;-69
2023/07/29 11:39:51;;;;;;;3.92;1.85;;;;;;;;;;4990036;28;20034;-69
2023/07/29 11:42:17;;;;;;;5.75;2.30;;;;;;;;;;4990003;28;20034;-70
2023/07/29 11:44:43;;;;;;;3.67;2.15;;;;;;;;;;4989739;28;20765;-69
2023/07/29 11:47:10;;;;;;;4.63;1.83;;;;;;;;;;4990301;28;20097;-69
2023/07/29 11:49:36;;;;;;;4.70;1.73;;;;;;;;;;4990144;28;20096;-70
2023/07/29 11:52:03;;;;;;;4.95;1.92;;;;;;;;;;4989850;28;20022;-69
2023/07/29 11:54:29;;;;;;;5.88;1.92;;;;;;;;;;4990131;28;20021;-71
2023/07/29 11:56:56;;;;;;;5.10;1.90;;;;;;;;;;4989867;28;20061;-71
2023/07/29 11:59:22;;;;;;;5.13;2.53;;;;;;;;;;4989855;28;20034;-67
2023/07/29 12:01:48;;;;;;;4.00;2.35;;;;;;;;;;4989555;28;20146;-70
2023/07/29 12:04:14;;;;;;;2.38;1.42;;;;;;;;;;4990402;28;20056;-68
2023/07/29 12:06:41;;;;;;;5.22;2.08;;;;;;;;;;4990193;28;20477;-70
2023/07/29 12:09:07;;;;;;;7.05;2.33;;;;;;;;;;4990632;28;20037;-69
2023/07/29 12:11:33;;;;;;;2.85;1.58;;;;;;;;;;4989909;28;20038;-70
2023/07/29 12:14:02;;;;;;;3.53;1.40;;;;;;;;;;4989518;28;20097;-71
2023/07/29 12:16:34;;;;;;;4.30;2.42;;;;;;;;;;4989374;28;20066;-69
2023/07/29 12:19:01;;;;;;;4.75;2.25;;;;;;;;;;4989493;28;20022;-71
2023/07/29 12:21:27;;;;;;;5.78;2.72;;;;;;;;;;4989653;28;20041;-70
2023/07/29 12:23:53;;;;;;;4.45;2.08;;;;;;;;;;4989695;28;20035;-71
2023/07/29 12:26:19;;;;;;;6.28;2.60;;;;;;;;;;4989593;28;20019;-70
2023/07/29 12:28:47;;;;;;;5.72;2.60;;;;;;;;;;4989498;28;20022;-71
2023/07/29 12:31:13;;;;;;;11.45;3.45;;;;;;;;;;4989464;28;20026;-71
2023/07/29 12:33:41;;;;;;;4.63;1.75;;;;;;;;;;4989797;28;20029;-70
2023/07/29 12:36:07;;;;;;;4.25;2.00;;;;;;;;;;4988966;28;20517;-70
2023/07/29 12:38:34;;;;;;;3.78;1.70;;;;;;;;;;4989690;28;20091;-70
2023/07/29 12:41:00;;;;;;;3.88;1.70;;;;;;;;;;4993075;28;20477;-69
2023/07/29 12:43:26;;;;;;;2.75;1.55;;;;;;;;;;4992547;28;20128;-70
2023/07/29 12:45:52;;;;;;;4.20;1.35;;;;;;;;;;4993186;28;20030;-71
2023/07/29 12:48:18;;;;;;;2.78;1.40;;;;;;;;;;4993246;28;20105;-70
2023/07/29 12:50:44;;;;;;;3.15;1.50;;;;;;;;;;4975297;28;20034;-70
2023/07/29 12:53:11;;;;;;;2.47;1.20;;;;;;;;;;4993054;28;20027;-70
2023/07/29 12:55:37;;;;;;;2.42;1.05;;;;;;;;;;4992594;28;20063;-70
2023/07/29 12:58:03;;;;;;;4.20;1.20;;;;;;;;;;4991926;28;20022;-71
2023/07/29 13:00:29;;;;;;;3.00;1.35;;;;;;;;;;4991818;28;20026;-71
2023/07/29 13:02:55;;;;;;;5.13;1.95;;;;;;;;;;4991756;28;20030;-70
2023/07/29 13:05:21;;;;;;;2.88;1.60;;;;;;;;;;4992520;28;20042;-71
2023/07/29 13:07:48;;;;;;;4.32;1.60;;;;;;;;;;4992024;28;20105;-72
2023/07/29 13:10:14;;;;;;;5.97;3.33;;;;;;;;;;4991125;28;20077;-72
2023/07/29 13:12:40;;;;;;;10.40;4.05;;;;;;;;;;4991048;28;20037;-72
2023/07/29 13:15:07;;;;;;;2.90;1.83;;;;;;;;;;4990089;28;20034;-70
2023/07/29 13:17:33;;;;;;;9.43;4.53;;;;;;;;;;4990077;28;20050;-71
2023/07/29 13:20:01;;;;;;;11.80;6.57;;;;;;;;;;4990884;28;20030;-70
2023/07/29 13:22:27;;;;;;;5.93;3.70;;;;;;;;;;4973218;28;20477;-71
2023/07/29 13:24:54;;;;;;;9.00;3.80;;;;;;;;;;4990587;28;20113;-72
2023/07/29 13:27:24;;;;;;;5.85;3.65;;;;;;;;;;4989366;28;20088;-71
2023/07/29 13:29:49;;;;;;;;;;;;;;;;;;4989830;28;20027;-69
2023/07/29 13:32:15;;;;;;;6.03;3.28;;;;;;;;;;4990750;28;20344;-71
2023/07/29 13:34:42;;;;;;;7.30;3.10;;;;;;;;;;4989280;28;20037;-71
2023/07/29 13:37:08;;;;;;;6.13;3.33;;;;;;;;;;4989467;28;20066;-69
2023/07/29 13:39:34;;;;;;;5.18;2.97;;;;;;;;;;4990096;28;20057;-69
2023/07/29 13:42:00;;;;;;;5.45;2.97;;;;;;;;;;4990286;28;20034;-71
2023/07/29 13:44:26;;;;;;;5.82;3.30;;;;;;;;;;4991582;28;20058;-71
2023/07/29 13:46:52;;;;;;;5.78;3.72;;;;;;;;;;4991101;28;20105;-71
2023/07/29 13:49:18;;;;;;;4.30;2.70;;;;;;;;;;4990844;28;20149;-72
2023/07/29 13:51:44;;;;;;;6.45;3.08;;;;;;;;;;4990927;28;20109;-71
2023/07/29 13:54:10;;;;;;;4.90;2.70;;;;;;;;;;4990774;28;20026;-71
2023/07/29 13:56:36;;;;;;;3.88;2.55;;;;;;;;;;4943375;28;1368074;-70
2023/07/29 13:59:01;;;;;;;3.97;2.70;;;;;;;;;;4991624;28;20046;-72
2023/07/29 14:01:27;;;;;;;4.32;2.38;;;;;;;;;;4991621;28;20027;-70
2023/07/29 14:03:53;;;;;;;3.90;2.30;;;;;;;;;;4991213;28;20034;-70
2023/07/29 14:06:19;;;;;;;4.65;3.05;;;;;;;;;;4991793;28;20023;-72
2023/07/29 14:08:45;;;;;;;3.67;1.70;;;;;;;;;;4991186;28;20023;-70
2023/07/29 14:11:11;;;;;;;4.35;1.95;;;;;;;;;;4991238;28;20455;-72
2023/07/29 14:13:37;;;;;;;3.53;2.20;;;;;;;;;;4991024;28;20049;-71
2023/07/29 14:16:03;;;;;;;3.60;2.00;;;;;;;;;;4991619;28;20046;-71
2023/07/29 14:18:30;;;;;;;5.00;2.10;;;;;;;;;;4973502;28;20477;-71
2023/07/29 14:20:56;;;;;;;5.70;2.40;;;;;;;;;;4991313;28;20029;-72
2023/07/29 14:23:22;;;;;;;3.70;2.22;;;;;;;;;;4990712;28;20026;-71
2023/07/29 14:25:48;;;;;;;3.50;2.10;;;;;;;;;;4991867;28;20023;-71
2023/07/29 14:28:14;;;;;;;3.78;2.45;;;;;;;;;;4991420;28;20045;-71
2023/07/29 14:30:41;;;;;;;4.97;1.92;;;;;;;;;;4990747;28;20037;-71
2023/07/29 14:33:07;;;;;;;2.95;1.67;;;;;;;;;;4991690;28;20066;-71
2023/07/29 14:35:33;;;;;;;3.35;1.88;;;;;;;;;;4991548;28;20109;-70
2023/07/29 14:37:59;;;;;;;3.58;2.35;;;;;;;;;;4990933;28;20035;-71
2023/07/29 14:40:26;;;;;;;4.50;2.40;;;;;;;;;;4991427;28;20037;-70